Time;durP1;ratioP1;P1;durP2;ratioP2;P2;SDS_P1;SDS_P2;PMS_P1;PMS_P2;Temp;Humidity;BMP_temperature;BMP_pressure;BME280_temperature;BME280_humidity;BME280_pressure;Samples;Min_cycle;Max_cycle;Signal;HPM_P1;HPM_P2
2023/06/29 00:00:07;;;;;;;27.97;21.03;;;;;;;;;;5071806;28;20462;-81
2023/06/29 00:02:34;;;;;;;32.30;22.40;;;;;;;;;;5079013;28;20932;-81
2023/06/29 00:05:00;;;;;;;28.10;23.77;;;;;;;;;;5080681;28;20446;-81
2023/06/29 00:07:26;;;;;;;32.00;24.87;;;;;;;;;;5082459;28;20458;-81
2023/06/29 00:09:54;;;;;;;31.30;23.90;;;;;;;;;;5075779;28;20466;-82
2023/06/29 00:12:22;;;;;;;37.10;25.10;;;;;;;;;;5079049;28;20443;-81
2023/06/29 00:14:48;;;;;;;29.83;23.10;;;;;;;;;;5076098;28;20466;-81
2023/06/29 00:17:16;;;;;;;29.10;23.73;;;;;;;;;;5077023;28;20473;-81
2023/06/29 00:19:42;;;;;;;26.13;21.00;;;;;;;;;;5079378;28;20485;-81
2023/06/29 00:22:10;;;;;;;30.40;23.30;;;;;;;;;;5076953;28;20471;-82
2023/06/29 00:24:42;;;;;;;29.60;23.90;;;;;;;;;;5074531;28;20471;-82
2023/06/29 00:27:10;;;;;;;32.20;23.40;;;;;;;;;;5075453;28;20479;-80
2023/06/29 00:29:38;;;;;;;34.00;26.50;;;;;;;;;;5080501;28;20489;-79
2023/06/29 00:32:04;;;;;;;31.20;24.20;;;;;;;;;;5081700;28;20455;-80
2023/06/29 00:34:30;;;;;;;34.90;24.73;;;;;;;;;;5077101;28;20446;-79
2023/06/29 00:36:57;;;;;;;32.13;23.50;;;;;;;;;;5082537;28;20853;-80
2023/06/29 00:39:25;;;;;;;33.57;26.00;;;;;;;;;;5073049;28;20459;-80
2023/06/29 00:41:54;;;;;;;30.50;22.60;;;;;;;;;;5079151;28;20470;-79
2023/06/29 00:44:20;;;;;;;36.97;24.43;;;;;;;;;;5084698;28;20470;-80
2023/06/29 00:46:48;;;;;;;35.00;23.77;;;;;;;;;;5076424;28;20471;-80
2023/06/29 00:49:15;;;;;;;32.77;23.57;;;;;;;;;;5087086;28;20469;-80
2023/06/29 00:51:41;;;;;;;31.00;24.00;;;;;;;;;;5083718;28;21012;-80
2023/06/29 00:54:08;;;;;;;29.97;23.57;;;;;;;;;;5077094;28;20446;-81
2023/06/29 00:56:35;;;;;;;32.30;24.13;;;;;;;;;;5077301;28;20471;-82
2023/06/29 00:59:01;;;;;;;31.87;23.57;;;;;;;;;;5078000;28;20471;-81
2023/06/29 01:01:28;;;;;;;34.80;23.23;;;;;;;;;;5072995;28;20466;-82
2023/06/29 01:03:57;;;;;;;34.47;24.40;;;;;;;;;;5077758;28;20462;-81
2023/06/29 01:06:27;;;;;;;35.03;24.17;;;;;;;;;;5073518;28;20474;-80
2023/06/29 01:08:56;;;;;;;28.20;20.77;;;;;;;;;;5082661;28;20521;-80
2023/06/29 01:11:23;;;;;;;30.43;22.80;;;;;;;;;;5075365;28;20478;-79
2023/06/29 01:13:52;;;;;;;28.47;22.67;;;;;;;;;;5072109;28;20512;-81
2023/06/29 01:16:19;;;;;;;29.30;22.37;;;;;;;;;;5071918;28;20484;-80
2023/06/29 01:18:46;;;;;;;30.83;22.47;;;;;;;;;;5075633;28;20981;-81
2023/06/29 01:21:15;;;;;;;29.67;21.50;;;;;;;;;;5079834;28;20477;-82
2023/06/29 01:23:42;;;;;;;30.80;20.97;;;;;;;;;;5087662;28;20434;-80
2023/06/29 01:26:11;;;;;;;30.80;22.10;;;;;;;;;;5078669;28;20544;-80
2023/06/29 01:28:38;;;;;;;25.40;22.27;;;;;;;;;;5075344;28;20553;-80
2023/06/29 01:31:05;;;;;;;28.30;21.80;;;;;;;;;;5074679;28;20471;-82
2023/06/29 01:33:32;;;;;;;27.23;20.93;;;;;;;;;;5076753;28;20455;-79
2023/06/29 01:36:02;;;;;;;33.60;22.00;;;;;;;;;;5080914;28;20465;-82
2023/06/29 01:38:32;;;;;;;29.27;21.60;;;;;;;;;;5076885;28;20470;-82
2023/06/29 01:40:58;;;;;;;29.23;21.50;;;;;;;;;;5075853;28;20467;-82
2023/06/29 01:43:28;;;;;;;27.93;23.13;;;;;;;;;;5082688;28;20454;-82
2023/06/29 01:45:55;;;;;;;28.80;21.53;;;;;;;;;;5080472;28;20471;-82
2023/06/29 01:48:21;;;;;;;30.43;22.37;;;;;;;;;;5079398;28;20870;-82
2023/06/29 01:50:48;;;;;;;32.73;22.67;;;;;;;;;;5076756;28;20469;-82
2023/06/29 01:53:15;;;;;;;29.13;22.57;;;;;;;;;;5073298;28;20439;-81
2023/06/29 01:55:41;;;;;;;32.40;22.00;;;;;;;;;;5075160;28;20478;-81
2023/06/29 01:58:08;;;;;;;25.43;20.27;;;;;;;;;;5061907;28;20467;-80
2023/06/29 02:00:35;;;;;;;25.90;20.03;;;;;;;;;;5076551;28;20471;-82
2023/06/29 02:03:02;;;;;;;29.30;19.63;;;;;;;;;;5077191;28;20455;-79
2023/06/29 02:05:30;;;;;;;31.87;23.40;;;;;;;;;;5083224;28;20468;-80
2023/06/29 02:07:56;;;;;;;28.77;21.17;;;;;;;;;;5080293;28;20934;-79
2023/06/29 02:10:24;;;;;;;31.60;21.17;;;;;;;;;;5079989;28;20462;-81
2023/06/29 02:12:50;;;;;;;25.17;20.83;;;;;;;;;;5077819;28;20828;-80
2023/06/29 02:15:16;;;;;;;30.90;21.13;;;;;;;;;;5083545;28;20462;-80
2023/06/29 02:17:44;;;;;;;28.73;20.00;;;;;;;;;;5076059;28;20474;-80
2023/06/29 02:20:12;;;;;;;31.70;21.43;;;;;;;;;;5074747;28;20470;-80
2023/06/29 02:22:39;;;;;;;27.83;20.90;;;;;;;;;;5075773;28;20505;-80
2023/06/29 02:25:05;;;;;;;34.40;21.80;;;;;;;;;;5064295;28;20434;-80
2023/06/29 02:27:32;;;;;;;28.70;20.40;;;;;;;;;;5068546;28;20470;-79
2023/06/29 02:29:59;;;;;;;30.53;20.00;;;;;;;;;;5077106;28;20459;-80
2023/06/29 02:32:26;;;;;;;27.40;20.57;;;;;;;;;;5066976;28;20439;-80
2023/06/29 02:34:54;;;;;;;25.47;19.63;;;;;;;;;;5075010;28;20469;-81
2023/06/29 02:37:20;;;;;;;26.83;20.10;;;;;;;;;;5071943;28;20471;-80
2023/06/29 02:39:46;;;;;;;29.87;19.90;;;;;;;;;;5078296;28;20460;-80
2023/06/29 02:42:13;;;;;;;29.97;20.77;;;;;;;;;;5068537;28;21085;-79
2023/06/29 02:44:40;;;;;;;29.30;21.17;;;;;;;;;;5084242;28;20447;-80
2023/06/29 02:47:06;;;;;;;30.07;19.13;;;;;;;;;;5071229;28;20467;-80
2023/06/29 02:49:33;;;;;;;25.30;19.20;;;;;;;;;;5081451;28;20450;-81
2023/06/29 02:52:00;;;;;;;25.60;18.83;;;;;;;;;;5083433;28;20470;-80
2023/06/29 02:54:27;;;;;;;25.87;20.70;;;;;;;;;;5084203;28;20446;-81
2023/06/29 02:56:53;;;;;;;29.33;21.80;;;;;;;;;;5081842;28;20482;-80
2023/06/29 02:59:19;;;;;;;28.40;20.63;;;;;;;;;;5076313;28;20439;-80
2023/06/29 03:01:46;;;;;;;29.30;19.80;;;;;;;;;;5074615;28;20471;-81
2023/06/29 03:04:12;;;;;;;28.30;20.37;;;;;;;;;;5087216;28;20450;-79
2023/06/29 03:06:39;;;;;;;27.43;21.80;;;;;;;;;;5083467;28;20481;-80
2023/06/29 03:09:06;;;;;;;27.13;21.23;;;;;;;;;;5069000;28;20463;-81
2023/06/29 03:11:33;;;;;;;28.07;19.77;;;;;;;;;;5079179;28;20875;-80
2023/06/29 03:13:59;;;;;;;25.97;20.40;;;;;;;;;;5082154;28;20446;-80
2023/06/29 03:16:26;;;;;;;23.93;18.87;;;;;;;;;;5076920;28;20485;-81
2023/06/29 03:18:52;;;;;;;31.70;20.33;;;;;;;;;;5083816;28;20995;-79
2023/06/29 03:21:19;;;;;;;27.30;19.33;;;;;;;;;;5082625;28;20467;-80
2023/06/29 03:23:46;;;;;;;24.00;19.90;;;;;;;;;;5080556;28;20497;-80
2023/06/29 03:26:14;;;;;;;28.00;18.67;;;;;;;;;;5083961;28;20551;-80
2023/06/29 03:28:42;;;;;;;24.63;19.60;;;;;;;;;;5078856;28;20864;-80
2023/06/29 03:31:08;;;;;;;30.90;18.93;;;;;;;;;;5074566;28;20471;-80
2023/06/29 03:33:35;;;;;;;26.33;19.40;;;;;;;;;;5073973;28;20475;-80
2023/06/29 03:36:01;;;;;;;25.57;19.23;;;;;;;;;;5072111;28;20474;-80
2023/06/29 03:38:27;;;;;;;22.70;16.50;;;;;;;;;;5067463;28;20481;-80
2023/06/29 03:40:54;;;;;;;26.03;18.57;;;;;;;;;;5081699;28;20458;-80
2023/06/29 03:43:21;;;;;;;23.10;17.20;;;;;;;;;;5080882;28;20481;-80
2023/06/29 03:45:48;;;;;;;29.17;17.87;;;;;;;;;;5076804;28;20475;-80
2023/06/29 03:48:14;;;;;;;20.63;17.83;;;;;;;;;;5078958;28;20475;-81
2023/06/29 03:50:41;;;;;;;30.70;18.93;;;;;;;;;;5081866;28;20467;-80
2023/06/29 03:53:07;;;;;;;22.50;16.87;;;;;;;;;;5080750;28;20450;-81
2023/06/29 03:55:34;;;;;;;24.40;17.83;;;;;;;;;;5080024;28;20471;-80
2023/06/29 03:58:00;;;;;;;27.17;18.67;;;;;;;;;;5080918;28;20482;-81
2023/06/29 04:00:28;;;;;;;24.83;19.17;;;;;;;;;;5087963;28;20463;-80
2023/06/29 04:02:54;;;;;;;24.87;18.57;;;;;;;;;;5080186;28;20487;-80
2023/06/29 04:05:21;;;;;;;24.37;18.10;;;;;;;;;;5088424;28;20472;-80
2023/06/29 04:07:47;;;;;;;27.50;21.40;;;;;;;;;;5076845;28;20471;-80
2023/06/29 04:10:13;;;;;;;22.50;19.47;;;;;;;;;;5076596;28;20463;-80
2023/06/29 04:12:40;;;;;;;26.87;17.67;;;;;;;;;;5080557;28;20975;-80
2023/06/29 04:15:07;;;;;;;26.70;20.00;;;;;;;;;;5079515;28;20442;-81
2023/06/29 04:17:34;;;;;;;25.67;18.50;;;;;;;;;;5086557;28;20471;-80
2023/06/29 04:20:01;;;;;;;30.70;20.20;;;;;;;;;;5082247;28;20444;-81
2023/06/29 04:22:27;;;;;;;25.80;19.33;;;;;;;;;;5092987;28;20846;-80
2023/06/29 04:24:54;;;;;;;25.97;19.73;;;;;;;;;;5069329;28;20494;-80
2023/06/29 04:27:22;;;;;;;28.17;19.70;;;;;;;;;;5076605;28;21195;-80
2023/06/29 04:29:48;;;;;;;29.47;19.80;;;;;;;;;;5070788;28;20460;-80
2023/06/29 04:32:14;;;;;;;22.00;19.23;;;;;;;;;;5078213;28;20463;-81
2023/06/29 04:34:42;;;;;;;28.90;18.43;;;;;;;;;;5080998;28;20454;-79
2023/06/29 04:37:10;;;;;;;22.87;18.93;;;;;;;;;;5082461;28;20462;-80
2023/06/29 04:39:36;;;;;;;25.43;19.73;;;;;;;;;;5077167;28;20474;-81
2023/06/29 04:42:04;;;;;;;22.47;17.33;;;;;;;;;;5066647;28;20520;-80
2023/06/29 04:44:32;;;;;;;21.90;18.03;;;;;;;;;;5071379;28;20454;-81
2023/06/29 04:47:00;;;;;;;26.67;19.30;;;;;;;;;;5080652;28;20904;-80
2023/06/29 04:49:27;;;;;;;35.23;19.73;;;;;;;;;;5078302;28;20920;-80
2023/06/29 04:51:55;;;;;;;26.67;18.20;;;;;;;;;;5079382;28;20478;-81
2023/06/29 04:54:21;;;;;;;24.67;19.03;;;;;;;;;;5076368;28;20960;-80
2023/06/29 04:56:48;;;;;;;29.30;21.03;;;;;;;;;;5074188;28;20481;-80
2023/06/29 04:59:14;;;;;;;33.73;20.00;;;;;;;;;;5075026;28;20483;-81
2023/06/29 05:01:41;;;;;;;27.80;18.90;;;;;;;;;;5073143;28;20471;-80
2023/06/29 05:04:07;;;;;;;26.73;19.03;;;;;;;;;;5073437;28;20458;-81
2023/06/29 05:06:34;;;;;;;29.87;19.80;;;;;;;;;;5072602;28;20875;-79
2023/06/29 05:09:01;;;;;;;27.47;19.80;;;;;;;;;;5077810;28;20471;-80
2023/06/29 05:11:27;;;;;;;27.40;19.30;;;;;;;;;;5073679;28;20996;-80
2023/06/29 05:13:54;;;;;;;27.30;19.70;;;;;;;;;;5076114;28;20451;-80
2023/06/29 05:16:20;;;;;;;29.23;19.57;;;;;;;;;;5076810;28;20471;-80
2023/06/29 05:18:46;;;;;;;29.30;19.67;;;;;;;;;;5079833;28;20848;-80
2023/06/29 05:21:14;;;;;;;28.90;19.27;;;;;;;;;;5075581;28;20482;-80
2023/06/29 05:23:41;;;;;;;22.33;18.30;;;;;;;;;;5078404;28;20493;-81
2023/06/29 05:26:09;;;;;;;31.63;20.33;;;;;;;;;;5074436;28;20475;-80
2023/06/29 05:28:36;;;;;;;20.67;17.30;;;;;;;;;;5075389;28;20474;-80
2023/06/29 05:31:03;;;;;;;25.77;20.40;;;;;;;;;;5077385;28;20470;-81
2023/06/29 05:33:29;;;;;;;26.37;20.47;;;;;;;;;;5087465;28;20482;-80
2023/06/29 05:35:55;;;;;;;30.60;21.00;;;;;;;;;;5072265;28;20473;-80
2023/06/29 05:38:22;;;;;;;30.60;20.57;;;;;;;;;;5076253;28;20477;-79
2023/06/29 05:40:48;;;;;;;30.73;19.97;;;;;;;;;;5077379;28;20461;-80
2023/06/29 05:43:16;;;;;;;28.63;20.00;;;;;;;;;;5079767;28;20999;-80
2023/06/29 05:45:43;;;;;;;29.33;18.57;;;;;;;;;;5072559;28;20474;-80
2023/06/29 05:48:09;;;;;;;34.13;20.70;;;;;;;;;;5083731;28;20505;-80
2023/06/29 05:50:36;;;;;;;31.47;19.80;;;;;;;;;;5081523;28;20481;-80
2023/06/29 05:53:03;;;;;;;33.33;21.67;;;;;;;;;;5075324;28;20439;-83
2023/06/29 05:55:31;;;;;;;27.20;19.57;;;;;;;;;;5074157;28;20455;-78
2023/06/29 05:57:58;;;;;;;28.23;20.73;;;;;;;;;;5078452;28;20896;-81
2023/06/29 06:00:26;;;;;;;29.80;19.73;;;;;;;;;;5080117;28;20476;-80
2023/06/29 06:02:53;;;;;;;30.80;21.30;;;;;;;;;;5076060;28;20505;-79
2023/06/29 06:05:20;;;;;;;43.97;24.37;;;;;;;;;;5082893;28;20513;-80
2023/06/29 06:07:46;;;;;;;34.97;22.50;;;;;;;;;;5078440;28;20477;-80
2023/06/29 06:10:12;;;;;;;40.03;22.63;;;;;;;;;;5077196;28;20458;-80
2023/06/29 06:12:39;;;;;;;26.53;20.20;;;;;;;;;;5074298;28;20820;-80
2023/06/29 06:15:08;;;;;;;32.13;22.07;;;;;;;;;;5077919;28;20459;-81
2023/06/29 06:17:36;;;;;;;37.00;21.30;;;;;;;;;;5085823;28;20493;-81
2023/06/29 06:20:05;;;;;;;28.80;19.97;;;;;;;;;;5084764;28;20947;-80
2023/06/29 06:22:31;;;;;;;32.53;22.03;;;;;;;;;;5088532;28;20485;-80
2023/06/29 06:24:57;;;;;;;34.47;20.47;;;;;;;;;;5084406;28;20443;-81
2023/06/29 06:27:24;;;;;;;31.70;21.93;;;;;;;;;;5093178;28;20472;-80
2023/06/29 06:29:50;;;;;;;26.23;20.40;;;;;;;;;;5083095;28;20441;-80
2023/06/29 06:32:19;;;;;;;31.37;20.37;;;;;;;;;;5067610;28;20822;-81
2023/06/29 06:34:48;;;;;;;24.20;20.43;;;;;;;;;;5085500;28;20546;-81
2023/06/29 06:37:15;;;;;;;34.43;22.63;;;;;;;;;;5066512;28;20470;-81
2023/06/29 06:39:41;;;;;;;33.67;20.90;;;;;;;;;;5084490;28;20446;-81
2023/06/29 06:42:07;;;;;;;33.53;23.13;;;;;;;;;;5085411;28;20465;-80
2023/06/29 06:44:34;;;;;;;23.93;18.20;;;;;;;;;;5084235;28;20458;-80
2023/06/29 06:47:00;;;;;;;32.47;21.83;;;;;;;;;;5082746;28;20463;-80
2023/06/29 06:49:26;;;;;;;26.20;19.43;;;;;;;;;;5088316;28;20465;-81
2023/06/29 06:51:54;;;;;;;33.33;20.33;;;;;;;;;;5088921;28;20842;-81
2023/06/29 06:54:24;;;;;;;26.30;21.00;;;;;;;;;;5081014;28;20438;-80
2023/06/29 06:56:51;;;;;;;33.00;21.57;;;;;;;;;;5083380;28;20470;-80
2023/06/29 06:59:17;;;;;;;26.33;20.83;;;;;;;;;;5087437;28;21002;-80
2023/06/29 07:01:43;;;;;;;27.93;21.13;;;;;;;;;;5077198;28;20478;-80
2023/06/29 07:04:11;;;;;;;30.97;20.17;;;;;;;;;;5085332;28;20482;-80
2023/06/29 07:06:37;;;;;;;30.50;21.80;;;;;;;;;;5083730;28;20561;-81
2023/06/29 07:09:07;;;;;;;30.83;19.43;;;;;;;;;;5084844;28;20470;-80
2023/06/29 07:11:33;;;;;;;29.10;20.87;;;;;;;;;;5078945;28;20470;-81
2023/06/29 07:13:59;;;;;;;29.07;20.50;;;;;;;;;;5084338;28;20447;-81
2023/06/29 07:16:27;;;;;;;32.47;21.67;;;;;;;;;;5089861;28;20459;-80
2023/06/29 07:19:04;;;;;;;25.63;20.30;;;;;;;;;;5085673;28;20492;-80
2023/06/29 07:21:30;;;;;;;27.27;20.60;;;;;;;;;;5085961;28;20888;-80
2023/06/29 07:23:57;;;;;;;28.10;18.70;;;;;;;;;;5081511;28;20848;-81
2023/06/29 07:26:24;;;;;;;22.97;19.30;;;;;;;;;;5081917;28;20467;-80
2023/06/29 07:28:51;;;;;;;26.37;18.87;;;;;;;;;;5076756;28;20481;-80
2023/06/29 07:31:17;;;;;;;25.87;19.67;;;;;;;;;;5086494;28;20470;-80
2023/06/29 07:33:44;;;;;;;27.23;18.30;;;;;;;;;;5081407;28;20450;-80
2023/06/29 07:36:10;;;;;;;27.27;19.47;;;;;;;;;;5081953;28;20474;-80
2023/06/29 07:38:36;;;;;;;25.53;17.70;;;;;;;;;;5084940;28;20474;-81
2023/06/29 07:41:05;;;;;;;28.30;19.80;;;;;;;;;;5080872;28;20466;-80
2023/06/29 07:43:32;;;;;;;22.60;17.93;;;;;;;;;;5082746;28;20995;-81
2023/06/29 07:45:59;;;;;;;23.10;18.07;;;;;;;;;;5092339;28;20842;-80
2023/06/29 07:48:26;;;;;;;28.93;17.10;;;;;;;;;;5087901;28;20463;-79
2023/06/29 07:50:52;;;;;;;29.30;19.07;;;;;;;;;;5082327;28;20473;-80
2023/06/29 07:53:19;;;;;;;23.43;16.97;;;;;;;;;;5086898;28;20447;-80
2023/06/29 07:55:45;;;;;;;25.90;19.17;;;;;;;;;;5067945;28;20459;-81
2023/06/29 07:58:12;;;;;;;24.30;19.60;;;;;;;;;;5091719;28;20474;-80
2023/06/29 08:00:40;;;;;;;21.40;17.90;;;;;;;;;;5083377;28;20466;-79
2023/06/29 08:03:06;;;;;;;28.03;17.73;;;;;;;;;;5089003;28;20855;-80
2023/06/29 08:05:34;;;;;;;22.77;18.40;;;;;;;;;;5083716;28;20931;-80
2023/06/29 08:08:00;;;;;;;26.97;19.03;;;;;;;;;;5087252;28;20465;-80
2023/06/29 08:10:27;;;;;;;27.53;19.30;;;;;;;;;;5084652;28;20473;-80
2023/06/29 08:12:53;;;;;;;25.30;17.80;;;;;;;;;;5077128;28;20794;-80
2023/06/29 08:15:19;;;;;;;26.00;19.00;;;;;;;;;;5074274;28;20837;-80
2023/06/29 08:17:47;;;;;;;24.13;17.47;;;;;;;;;;5076163;28;20463;-80
2023/06/29 08:20:14;;;;;;;26.87;20.43;;;;;;;;;;5079523;28;20459;-79
2023/06/29 08:22:42;;;;;;;26.03;19.47;;;;;;;;;;5084880;28;20943;-80
2023/06/29 08:25:09;;;;;;;24.27;18.67;;;;;;;;;;5092248;28;20477;-80
2023/06/29 08:27:36;;;;;;;24.80;18.57;;;;;;;;;;5079182;28;20855;-80
2023/06/29 08:30:03;;;;;;;30.07;19.47;;;;;;;;;;5080611;28;20445;-80
2023/06/29 08:32:29;;;;;;;25.20;18.20;;;;;;;;;;5085247;28;20448;-80
2023/06/29 08:34:57;;;;;;;27.87;19.57;;;;;;;;;;5079936;28;20974;-80
2023/06/29 08:37:23;;;;;;;24.97;16.30;;;;;;;;;;5092662;28;20470;-80
2023/06/29 08:39:49;;;;;;;27.57;18.00;;;;;;;;;;5078839;28;20454;-80
2023/06/29 08:42:16;;;;;;;26.60;19.43;;;;;;;;;;5085068;28;20844;-80
2023/06/29 08:44:42;;;;;;;23.90;19.03;;;;;;;;;;5086453;28;20494;-80
2023/06/29 08:47:11;;;;;;;26.07;16.90;;;;;;;;;;5072486;28;20991;-80
2023/06/29 08:49:39;;;;;;;27.13;19.97;;;;;;;;;;5085201;28;20446;-79
2023/06/29 08:52:10;;;;;;;26.33;19.20;;;;;;;;;;5074318;28;20475;-82
2023/06/29 08:54:36;;;;;;;34.20;20.37;;;;;;;;;;5083926;28;20442;-80
2023/06/29 08:57:03;;;;;;;24.30;16.83;;;;;;;;;;5073491;28;20463;-80
2023/06/29 08:59:30;;;;;;;25.53;18.13;;;;;;;;;;5078952;28;20952;-80
2023/06/29 09:01:58;;;;;;;27.20;18.70;;;;;;;;;;5075147;28;20463;-80
2023/06/29 09:04:24;;;;;;;28.37;20.37;;;;;;;;;;5081330;28;20483;-80
2023/06/29 09:06:53;;;;;;;28.57;18.03;;;;;;;;;;5081087;28;20466;-78
2023/06/29 09:09:21;;;;;;;26.63;21.03;;;;;;;;;;5088641;28;20450;-80
2023/06/29 09:11:47;;;;;;;27.80;18.83;;;;;;;;;;5085009;28;20520;-81
2023/06/29 09:14:14;;;;;;;29.93;20.00;;;;;;;;;;5083311;28;20453;-80
2023/06/29 09:16:49;;;;;;;24.80;18.70;;;;;;;;;;5075612;28;20467;-80
2023/06/29 09:19:16;;;;;;;35.20;20.20;;;;;;;;;;5083566;28;20445;-79
2023/06/29 09:21:44;;;;;;;31.70;22.00;;;;;;;;;;5078332;28;20467;-80
2023/06/29 09:24:14;;;;;;;32.33;20.70;;;;;;;;;;5085707;28;20481;-81
2023/06/29 09:26:42;;;;;;;28.80;19.30;;;;;;;;;;5078943;28;20467;-80
2023/06/29 09:29:08;;;;;;;23.07;17.73;;;;;;;;;;5079464;28;20836;-80
2023/06/29 09:31:35;;;;;;;26.43;17.73;;;;;;;;;;5071919;28;21091;-80
2023/06/29 09:34:18;;;;;;;26.20;17.23;;;;;;;;;;5075863;28;20458;-79
2023/06/29 09:36:44;;;;;;;25.03;15.97;;;;;;;;;;5082448;28;20470;-80
2023/06/29 09:39:11;;;;;;;23.70;17.60;;;;;;;;;;5075765;28;20474;-80
2023/06/29 09:41:46;;;;;;;28.10;17.80;;;;;;;;;;5073703;28;20466;-80
2023/06/29 09:44:13;;;;;;;24.13;17.80;;;;;;;;;;5082999;28;20482;-81
2023/06/29 09:46:41;;;;;;;26.60;20.33;;;;;;;;;;5080122;28;20463;-82
2023/06/29 09:49:08;;;;;;;29.13;17.53;;;;;;;;;;5089819;28;20473;-82
2023/06/29 09:51:36;;;;;;;28.10;19.20;;;;;;;;;;5080665;28;20466;-81
2023/06/29 09:54:02;;;;;;;27.50;19.13;;;;;;;;;;5091776;28;20923;-82
2023/06/29 09:56:29;;;;;;;24.97;19.57;;;;;;;;;;5089150;28;20462;-81
2023/06/29 09:58:57;;;;;;;30.23;19.27;;;;;;;;;;5081882;28;20466;-81
2023/06/29 10:01:26;;;;;;;27.70;18.70;;;;;;;;;;5077395;28;20459;-82
2023/06/29 10:03:52;;;;;;;28.60;20.33;;;;;;;;;;5092947;28;20489;-82
2023/06/29 10:06:21;;;;;;;23.73;19.23;;;;;;;;;;5083843;28;20463;-81
2023/06/29 10:08:49;;;;;;;28.50;19.83;;;;;;;;;;5085932;28;20470;-82
2023/06/29 10:11:15;;;;;;;27.43;20.40;;;;;;;;;;5075750;28;20528;-82
2023/06/29 10:13:43;;;;;;;33.70;23.53;;;;;;;;;;5084365;28;20447;-80
2023/06/29 10:16:12;;;;;;;26.83;19.33;;;;;;;;;;5097110;28;20473;-80
2023/06/29 10:18:41;;;;;;;31.23;22.33;;;;;;;;;;5090330;28;20474;-78
2023/06/29 10:21:08;;;;;;;29.33;20.50;;;;;;;;;;5087002;28;20465;-80
2023/06/29 10:23:35;;;;;;;27.20;21.77;;;;;;;;;;5097733;28;20440;-79
2023/06/29 10:26:03;;;;;;;31.40;21.43;;;;;;;;;;5081557;28;20466;-80
2023/06/29 10:28:29;;;;;;;31.53;21.67;;;;;;;;;;5087203;28;20486;-79
2023/06/29 10:30:58;;;;;;;30.00;22.37;;;;;;;;;;5082848;28;20490;-82
2023/06/29 10:33:26;;;;;;;35.70;23.33;;;;;;;;;;5084036;28;20442;-82
2023/06/29 10:35:55;;;;;;;32.83;20.50;;;;;;;;;;5087075;28;20471;-82
2023/06/29 10:38:27;;;;;;;31.07;23.47;;;;;;;;;;5066505;28;20569;-80
2023/06/29 10:40:53;;;;;;;26.80;20.13;;;;;;;;;;5082344;28;20489;-80
2023/06/29 10:43:20;;;;;;;34.33;25.20;;;;;;;;;;5078188;28;20928;-81
2023/06/29 10:45:46;;;;;;;33.03;21.50;;;;;;;;;;5097135;28;20473;-82
2023/06/29 10:48:17;;;;;;;35.53;25.67;;;;;;;;;;5090762;28;20482;-82
2023/06/29 10:50:45;;;;;;;26.73;21.50;;;;;;;;;;5085027;28;20475;-81
2023/06/29 10:53:12;;;;;;;31.90;22.10;;;;;;;;;;5086562;28;20450;-82
2023/06/29 10:55:39;;;;;;;29.13;20.80;;;;;;;;;;5082138;28;20474;-80
2023/06/29 10:58:10;;;;;;;33.00;22.67;;;;;;;;;;5071079;28;20528;-81
2023/06/29 11:00:37;;;;;;;31.50;21.73;;;;;;;;;;5083050;28;20469;-82
2023/06/29 11:03:03;;;;;;;35.97;22.20;;;;;;;;;;5080986;28;20439;-82
2023/06/29 11:05:30;;;;;;;34.80;23.43;;;;;;;;;;5082244;28;20471;-81
2023/06/29 11:07:58;;;;;;;29.00;22.00;;;;;;;;;;5077800;28;20471;-82
2023/06/29 11:10:24;;;;;;;30.37;22.10;;;;;;;;;;5088525;28;20469;-82
2023/06/29 11:12:51;;;;;;;30.40;21.73;;;;;;;;;;5077774;28;20442;-82
2023/06/29 11:15:18;;;;;;;29.67;22.40;;;;;;;;;;5085922;28;20466;-82
2023/06/29 11:17:45;;;;;;;31.57;20.17;;;;;;;;;;5090454;28;20466;-83
2023/06/29 11:20:13;;;;;;;30.83;20.63;;;;;;;;;;5077382;28;20458;-80
2023/06/29 11:22:39;;;;;;;28.97;20.77;;;;;;;;;;5086095;28;20447;-79
2023/06/29 11:25:08;;;;;;;32.80;21.20;;;;;;;;;;5076025;28;20481;-79
2023/06/29 11:27:34;;;;;;;29.37;21.47;;;;;;;;;;5080520;28;20461;-80
2023/06/29 11:30:04;;;;;;;28.27;22.00;;;;;;;;;;5084270;28;20455;-80
2023/06/29 11:32:31;;;;;;;27.13;20.63;;;;;;;;;;5074223;28;20482;-80
2023/06/29 11:34:59;;;;;;;29.00;21.07;;;;;;;;;;5083106;28;20824;-79
2023/06/29 11:37:26;;;;;;;38.83;23.43;;;;;;;;;;5086505;28;20471;-80
2023/06/29 11:39:53;;;;;;;30.13;19.07;;;;;;;;;;5078959;28;21002;-80
2023/06/29 11:42:22;;;;;;;37.00;23.27;;;;;;;;;;5070855;28;20462;-80
2023/06/29 11:44:48;;;;;;;35.17;24.90;;;;;;;;;;5076844;28;20509;-80
2023/06/29 11:47:16;;;;;;;29.60;22.57;;;;;;;;;;5081164;28;20485;-79
2023/06/29 11:49:42;;;;;;;28.77;21.03;;;;;;;;;;5076897;28;20450;-80
2023/06/29 11:52:09;;;;;;;29.93;22.80;;;;;;;;;;5062766;28;20494;-80
2023/06/29 11:54:35;;;;;;;38.43;21.53;;;;;;;;;;5081859;28;20455;-80
2023/06/29 11:57:02;;;;;;;34.80;23.93;;;;;;;;;;5085436;28;20465;-80
2023/06/29 11:59:31;;;;;;;38.83;23.10;;;;;;;;;;5082913;28;20450;-81
2023/06/29 12:01:57;;;;;;;31.77;21.03;;;;;;;;;;5088189;28;20470;-79
2023/06/29 12:04:24;;;;;;;37.53;22.37;;;;;;;;;;5083665;28;20484;-80
2023/06/29 12:06:53;;;;;;;31.47;23.40;;;;;;;;;;5083273;28;20470;-80
2023/06/29 12:09:20;;;;;;;30.37;22.37;;;;;;;;;;5081564;28;20477;-80
2023/06/29 12:11:56;;;;;;;28.40;20.73;;;;;;;;;;5083026;28;21018;-80
2023/06/29 12:14:25;;;;;;;32.00;22.27;;;;;;;;;;5084323;28;20475;-80
2023/06/29 12:16:54;;;;;;;29.97;21.10;;;;;;;;;;5081418;28;20466;-80
2023/06/29 12:19:20;;;;;;;31.70;21.87;;;;;;;;;;5083963;28;20504;-80
2023/06/29 12:21:47;;;;;;;35.50;22.87;;;;;;;;;;5086407;28;20466;-80
2023/06/29 12:24:16;;;;;;;27.80;21.90;;;;;;;;;;5080685;28;20453;-79
2023/06/29 12:26:42;;;;;;;36.40;21.30;;;;;;;;;;5093951;28;20470;-80
2023/06/29 12:29:09;;;;;;;30.53;21.60;;;;;;;;;;5085249;28;20474;-80
2023/06/29 12:31:36;;;;;;;38.10;21.97;;;;;;;;;;5090423;28;21340;-80
2023/06/29 12:34:12;;;;;;;38.10;23.70;;;;;;;;;;5127656;27;20555;-81
2023/06/29 12:36:39;;;;;;;29.70;21.70;;;;;;;;;;5076648;27;21011;-81
2023/06/29 12:39:05;;;;;;;28.90;20.90;;;;;;;;;;5071414;28;20466;-80
2023/06/29 12:41:32;;;;;;;34.33;20.00;;;;;;;;;;5070686;28;20470;-81
2023/06/29 12:43:58;;;;;;;26.10;21.10;;;;;;;;;;5069678;28;20443;-81
2023/06/29 12:46:27;;;;;;;35.13;21.63;;;;;;;;;;5060676;28;20463;-80
2023/06/29 12:48:53;;;;;;;35.70;19.87;;;;;;;;;;5059007;28;20468;-81
2023/06/29 12:51:21;;;;;;;29.20;20.00;;;;;;;;;;5050239;28;21039;-81
2023/06/29 12:53:47;;;;;;;31.07;20.70;;;;;;;;;;5064556;28;20498;-81
2023/06/29 12:56:13;;;;;;;36.87;21.67;;;;;;;;;;5066074;28;20463;-81
2023/06/29 12:58:40;;;;;;;31.03;20.60;;;;;;;;;;5062631;28;20471;-82
2023/06/29 13:01:06;;;;;;;30.60;20.10;;;;;;;;;;5054390;28;20890;-81
2023/06/29 13:03:32;;;;;;;35.17;21.67;;;;;;;;;;5064139;28;20444;-81
2023/06/29 13:06:00;;;;;;;28.17;20.90;;;;;;;;;;5057389;28;20525;-81
2023/06/29 13:08:28;;;;;;;26.00;20.27;;;;;;;;;;5070362;28;20496;-81
2023/06/29 13:10:54;;;;;;;35.47;23.70;;;;;;;;;;5066842;28;20483;-82
2023/06/29 13:13:21;;;;;;;35.83;22.17;;;;;;;;;;5066291;28;20584;-80
2023/06/29 13:15:47;;;;;;;31.67;21.80;;;;;;;;;;5057859;28;20520;-81
2023/06/29 13:18:14;;;;;;;36.93;22.27;;;;;;;;;;5055746;28;20479;-81
2023/06/29 13:20:41;;;;;;;30.80;21.83;;;;;;;;;;5064491;28;20471;-80
2023/06/29 13:23:07;;;;;;;29.63;20.90;;;;;;;;;;5065914;28;20790;-81
2023/06/29 13:25:35;;;;;;;33.57;22.87;;;;;;;;;;5064641;28;20491;-81
2023/06/29 13:28:01;;;;;;;28.67;22.07;;;;;;;;;;5057407;28;20833;-81
2023/06/29 13:30:28;;;;;;;38.87;23.37;;;;;;;;;;5062113;28;20464;-81
2023/06/29 13:32:54;;;;;;;33.63;21.53;;;;;;;;;;5068039;28;20486;-81
2023/06/29 13:35:21;;;;;;;32.20;21.10;;;;;;;;;;5068199;28;20463;-81
2023/06/29 13:37:48;;;;;;;24.83;20.30;;;;;;;;;;5069715;28;20485;-81
2023/06/29 13:40:15;;;;;;;33.30;21.07;;;;;;;;;;5066776;28;20474;-81
2023/06/29 13:42:42;;;;;;;27.33;20.13;;;;;;;;;;5061590;28;20494;-80
2023/06/29 13:45:09;;;;;;;35.60;21.90;;;;;;;;;;5048880;28;20456;-81
2023/06/29 13:47:39;;;;;;;31.13;21.80;;;;;;;;;;5045766;28;20501;-81
2023/06/29 13:50:06;;;;;;;30.33;21.53;;;;;;;;;;5038539;28;20818;-81
2023/06/29 13:52:32;;;;;;;26.00;20.30;;;;;;;;;;5047427;28;20484;-80
2023/06/29 13:54:58;;;;;;;29.17;19.80;;;;;;;;;;5055998;28;20447;-81
2023/06/29 13:57:25;;;;;;;37.37;22.60;;;;;;;;;;5051651;28;20476;-81
2023/06/29 13:59:52;;;;;;;25.60;18.60;;;;;;;;;;5055676;28;20820;-80
2023/06/29 14:02:19;;;;;;;25.30;20.30;;;;;;;;;;5044987;28;20460;-81
2023/06/29 14:04:45;;;;;;;30.10;20.00;;;;;;;;;;5045020;28;20448;-81
2023/06/29 14:07:12;;;;;;;24.73;18.57;;;;;;;;;;5048469;28;20484;-81
2023/06/29 14:09:38;;;;;;;30.60;20.13;;;;;;;;;;5047462;28;20484;-82
2023/06/29 14:12:05;;;;;;;30.87;19.57;;;;;;;;;;5022571;28;21010;-82
2023/06/29 14:14:33;;;;;;;30.00;20.93;;;;;;;;;;5029086;28;20495;-81